Time,TemperatureF,DewpointF,PressureIn,WindDirection,WindDirectionDegrees,WindSpeedMPH,WindSpeedGustMPH,Humidity,HourlyPrecipIn,Conditions,Clouds,dailyrainin,SoftwareType,DateUTC
2013-05-24 02:00:00,53.0,47.0,30.11,NNW,340,34.0,-999.0,81,-99.99,,,-99.99,,2013-05-24 09:00:00,
2013-05-24 02:21:00,53.0,47.0,30.11,NNW,340,34.0,-999.0,81,-99.99,,,-99.99,,2013-05-24 09:21:00,
2013-05-24 02:32:00,53.0,47.0,30.11,NNW,340,34.0,-999.0,81,-99.99,,,-99.99,,2013-05-24 09:32:00,
2013-05-24 02:42:00,53.0,47.0,30.11,NNW,340,34.0,-999.0,81,-99.99,,,-99.99,,2013-05-24 09:42:00,
2013-05-24 02:52:00,53.0,47.0,30.11,NNW,340,34.0,-999.0,81,-99.99,,,-99.99,,2013-05-24 09:52:00,
2013-05-24 03:00:00,52.0,48.0,30.12,NNW,340,29.0,-999.0,87,-99.99,,,-99.99,,2013-05-24 10:00:00,
2013-05-24 03:22:00,52.0,48.0,30.12,NNW,340,29.0,-999.0,87,-99.99,,,-99.99,,2013-05-24 10:22:00,
2013-05-24 03:32:00,52.0,48.0,30.12,NNW,340,29.0,-999.0,87,-99.99,,,-99.99,,2013-05-24 10:32:00,
2013-05-24 03:41:00,52.0,48.0,30.12,NNW,340,29.0,-999.0,87,-99.99,,,-99.99,,2013-05-24 10:41:00,
2013-05-24 03:52:00,52.0,48.0,30.12,NNW,340,29.0,-999.0,87,-99.99,,,-99.99,,2013-05-24 10:52:00,
2013-05-24 05:00:00,51.0,51.0,30.12,NNW,340,20.0,-999.0,100,-99.99,,,-99.99,,2013-05-24 12:00:00,
2013-05-24 05:21:00,51.0,51.0,30.12,NNW,340,20.0,-999.0,100,-99.99,,,-99.99,,2013-05-24 12:21:00,
2013-05-24 05:32:00,51.0,51.0,30.12,NNW,340,20.0,-999.0,100,-99.99,,,-99.99,,2013-05-24 12:32:00,
2013-05-24 05:41:00,51.0,51.0,30.12,NNW,340,20.0,-999.0,100,-99.99,,,-99.99,,2013-05-24 12:41:00,
2013-05-24 05:51:00,51.0,51.0,30.12,NNW,340,20.0,-999.0,100,-99.99,,,-99.99,,2013-05-24 12:51:00,
2013-05-24 06:00:00,50.0,50.0,30.12,NNW,340,25.0,-999.0,100,-99.99,,,-99.99,,2013-05-24 13:00:00,
2013-05-24 06:21:00,50.0,50.0,30.12,NNW,340,25.0,-999.0,100,-99.99,,,-99.99,,2013-05-24 13:21:00,
2013-05-24 06:31:00,50.0,50.0,30.12,NNW,340,25.0,-999.0,100,-99.99,,,-99.99,,2013-05-24 13:31:00,
2013-05-24 06:41:00,50.0,50.0,30.12,NNW,340,25.0,-999.0,100,-99.99,,,-99.99,,2013-05-24 13:41:00,
2013-05-24 06:52:00,50.0,50.0,30.12,NNW,340,25.0,-999.0,100,-99.99,,,-99.99,,2013-05-24 13:52:00,
2013-05-24 07:00:00,52.0,52.0,30.12,North,350,22.0,-999.0,100,-99.99,,,-99.99,,2013-05-24 14:00:00,
2013-05-24 07:21:00,52.0,52.0,30.12,North,350,22.0,-999.0,100,-99.99,,,-99.99,,2013-05-24 14:21:00,
2013-05-24 07:31:00,52.0,52.0,30.12,North,350,22.0,-999.0,100,-99.99,,,-99.99,,2013-05-24 14:31:00,
2013-05-24 07:41:00,52.0,52.0,30.12,North,350,22.0,-999.0,100,-99.99,,,-99.99,,2013-05-24 14:41:00,
2013-05-24 07:51:00,52.0,52.0,30.12,North,350,22.0,-999.0,100,-99.99,,,-99.99,,2013-05-24 14:51:00,
2013-05-24 09:00:00,52.0,46.0,30.12,NNW,340,21.0,-999.0,80,-99.99,,,-99.99,,2013-05-24 16:00:00,
2013-05-24 09:22:00,52.0,46.0,30.12,NNW,340,21.0,-999.0,80,-99.99,,,-99.99,,2013-05-24 16:22:00,
2013-05-24 09:32:00,52.0,46.0,30.12,NNW,340,21.0,-999.0,80,-99.99,,,-99.99,,2013-05-24 16:32:00,
2013-05-24 09:41:00,52.0,46.0,30.12,NNW,340,21.0,-999.0,80,-99.99,,,-99.99,,2013-05-24 16:41:00,
2013-05-24 09:52:00,52.0,46.0,30.12,NNW,340,21.0,-999.0,80,-99.99,,,-99.99,,2013-05-24 16:52:00,
2013-05-24 10:00:00,54.0,48.0,30.14,North,350,17.0,-999.0,80,-99.99,,,-99.99,,2013-05-24 17:00:00,
2013-05-24 10:22:00,54.0,48.0,30.14,North,350,17.0,-999.0,80,-99.99,,,-99.99,,2013-05-24 17:22:00,
2013-05-24 10:32:00,54.0,48.0,30.14,North,350,17.0,-999.0,80,-99.99,,,-99.99,,2013-05-24 17:32:00,
2013-05-24 10:41:00,54.0,48.0,30.14,North,350,17.0,-999.0,80,-99.99,,,-99.99,,2013-05-24 17:41:00,
2013-05-24 10:51:00,54.0,48.0,30.14,North,350,17.0,-999.0,80,-99.99,,,-99.99,,2013-05-24 17:51:00,
2013-05-24 13:00:00,54.0,-99.9,30.21,NNW,340,9.0,-999.0,-999,-99.99,,,-99.99,,2013-05-24 20:00:00,
2013-05-24 13:22:00,54.0,-99.9,30.21,NNW,340,9.0,-999.0,-999,-99.99,,,-99.99,,2013-05-24 20:22:00,
2013-05-24 13:32:00,54.0,-99.9,30.21,NNW,340,9.0,-999.0,-999,-99.99,,,-99.99,,2013-05-24 20:32:00,
2013-05-24 13:42:00,54.0,-99.9,30.21,NNW,340,9.0,-999.0,-999,-99.99,,,-99.99,,2013-05-24 20:42:00,
2013-05-24 13:52:00,54.0,-99.9,30.21,NNW,340,9.0,-999.0,-999,-99.99,,,-99.99,,2013-05-24 20:52:00,
2013-05-24 14:00:00,53.0,-99.9,30.21,NNW,330,10.0,-999.0,-999,-99.99,,,-99.99,,2013-05-24 21:00:00,
2013-05-24 14:22:00,53.0,-99.9,30.21,NNW,330,10.0,-999.0,-999,-99.99,,,-99.99,,2013-05-24 21:22:00,
2013-05-24 14:33:00,53.0,-99.9,30.21,NNW,330,10.0,-999.0,-999,-99.99,,,-99.99,,2013-05-24 21:33:00,
2013-05-24 14:43:00,53.0,-99.9,30.21,NNW,330,10.0,-999.0,-999,-99.99,,,-99.99,,2013-05-24 21:43:00,
2013-05-24 14:53:00,53.0,-99.9,30.21,NNW,330,10.0,-999.0,-999,-99.99,,,-99.99,,2013-05-24 21:53:00,
2013-05-24 15:00:00,54.0,45.0,30.19,NNW,340,9.0,-999.0,71,-99.99,,,-99.99,,2013-05-24 22:00:00,
2013-05-24 15:22:00,54.0,45.0,30.19,NNW,340,9.0,-999.0,71,-99.99,,,-99.99,,2013-05-24 22:22:00,
2013-05-24 15:32:00,54.0,45.0,30.19,NNW,340,9.0,-999.0,71,-99.99,,,-99.99,,2013-05-24 22:32:00,
2013-05-24 15:42:00,54.0,45.0,30.19,NNW,340,9.0,-999.0,71,-99.99,,,-99.99,,2013-05-24 22:42:00,
2013-05-24 15:52:00,54.0,45.0,30.19,NNW,340,9.0,-999.0,71,-99.99,,,-99.99,,2013-05-24 22:52:00,
2013-05-24 18:00:00,54.0,46.0,30.18,NW,310,9.0,-999.0,75,-99.99,,,-99.99,,2013-05-25 01:00:00,
2013-05-24 18:21:00,54.0,46.0,30.18,NW,310,9.0,-999.0,75,-99.99,,,-99.99,,2013-05-25 01:21:00,
2013-05-24 18:32:00,54.0,46.0,30.18,NW,310,9.0,-999.0,75,-99.99,,,-99.99,,2013-05-25 01:32:00,
2013-05-24 18:41:00,54.0,46.0,30.18,NW,310,9.0,-999.0,75,-99.99,,,-99.99,,2013-05-25 01:41:00,
2013-05-24 18:52:00,54.0,46.0,30.18,NW,310,9.0,-999.0,75,-99.99,,,-99.99,,2013-05-25 01:52:00,
2013-05-24 19:00:00,54.0,46.0,30.18,NW,310,7.0,-999.0,75,-99.99,,,-99.99,,2013-05-25 02:00:00,
2013-05-24 19:21:00,54.0,46.0,30.18,NW,310,7.0,-999.0,75,-99.99,,,-99.99,,2013-05-25 02:21:00,
2013-05-24 19:31:00,54.0,46.0,30.18,NW,310,7.0,-999.0,75,-99.99,,,-99.99,,2013-05-25 02:31:00,
2013-05-24 19:41:00,54.0,46.0,30.18,NW,310,7.0,-999.0,75,-99.99,,,-99.99,,2013-05-25 02:41:00,
2013-05-24 19:51:00,54.0,46.0,30.18,NW,310,7.0,-999.0,75,-99.99,,,-99.99,,2013-05-25 02:51:00,
2013-05-24 21:00:00,54.0,46.0,30.13,West,280,5.0,-999.0,74,-99.99,,,-99.99,,2013-05-25 04:00:00,
2013-05-24 21:23:00,54.0,46.0,30.13,West,280,5.0,-999.0,74,-99.99,,,-99.99,,2013-05-25 04:23:00,
2013-05-24 21:32:00,54.0,46.0,30.13,West,280,5.0,-999.0,74,-99.99,,,-99.99,,2013-05-25 04:32:00,
2013-05-24 21:43:00,54.0,46.0,30.13,West,280,5.0,-999.0,74,-99.99,,,-99.99,,2013-05-25 04:43:00,
2013-05-24 21:52:00,54.0,46.0,30.13,West,280,5.0,-999.0,74,-99.99,,,-99.99,,2013-05-25 04:52:00,
2013-05-24 22:00:00,54.0,47.0,30.13,North,0,0.0,-999.0,79,-99.99,,,-99.99,,2013-05-25 05:00:00,
2013-05-24 22:22:00,54.0,47.0,30.13,North,0,0.0,-999.0,79,-99.99,,,-99.99,,2013-05-25 05:22:00,
2013-05-24 22:32:00,54.0,47.0,30.13,North,0,0.0,-999.0,79,-99.99,,,-99.99,,2013-05-25 05:32:00,
2013-05-24 22:42:00,54.0,47.0,30.13,North,0,0.0,-999.0,79,-99.99,,,-99.99,,2013-05-25 05:42:00,
2013-05-24 22:52:00,54.0,47.0,30.13,North,0,0.0,-999.0,79,-99.99,,,-99.99,,2013-05-25 05:52:00,